Trade Lake, Wisconsin
Current Conditions -  °F | °C
As of 7:35 PM on Thursday 27 Nov 2014 (Local Time) from KRZN Reporting Station
Clear Clear  
Wind Chill: -17°   Ceiling: Unl
Heat Index: -17°   Visibility: 10mi
Dew Point: -20°   Wind: 0mph
Humidity: 78%   Direction: NA
Pressure: 30.34"   Gusts: NA
Location:  45.6678°N, 92.363°W
Report Text: KRZN 280135Z AUTO 00000KT 10SM CLR M16/M19 A3034 RMK AO2 T11651195
Loading
Personal Weather Stations






























Interactive Weather Map New forecast layout! Learn more

10-Day Weather Forecast

Advertisements
Track Severe Weather on mobile